DLY weather

Dillon's Bay Airport
Dillon's Bay, Tafea, Vanuatu

Public forecast

Using degrees Celsius for public forecast. Weather courtesy of forecast.io.

METAR (pilot weather report)

Closest report is Tanna Airport, 43.1 nm (79.8 km) SSE. Retrieved 2019/06/20 00:00 UTC (14 minutes ago):

NVVW 200000Z 07008KT 9999 BKN022 27/21 Q1014

TAF (pilot weather forecast)

Forecast is more than 12 hours old.

Closest forecast is Tanna Airport, 43.1 nm (79.8 km) SSE. Retrieved 2019/06/19 00:34 UTC (24 hours ago):

TAF NVVW 192220Z 2000/2024 09010KT 9999 SCT020 BKN040 INTER 2000/2006 9000 -SHRA BKN018 OVC040